createdAt,value
2017-12-15T00:01:42.335Z,63.76
2017-12-15T00:04:09.867Z,64.12
2017-12-15T00:06:37.451Z,62.87
2017-12-15T00:09:05.350Z,63.26
2017-12-15T00:11:33.693Z,62.24
2017-12-15T00:14:01.267Z,62.82
2017-12-15T00:16:28.860Z,63.43
2017-12-15T00:18:56.399Z,62.17
2017-12-15T00:21:24.266Z,61.12
2017-12-15T00:23:51.828Z,61.78
2017-12-15T00:26:19.611Z,60.78
2017-12-15T00:28:47.468Z,60.40
2017-12-15T00:31:15.158Z,61.25
2017-12-15T00:33:42.715Z,61.96
2017-12-15T00:36:10.283Z,60.60
2017-12-15T00:38:37.875Z,59.71
2017-12-15T00:41:05.421Z,60.46
2017-12-15T00:43:33.005Z,59.82
2017-12-15T00:46:00.654Z,59.80
2017-12-15T00:48:28.196Z,59.58
2017-12-15T00:50:55.730Z,59.66
2017-12-15T00:53:23.363Z,59.11
2017-12-15T00:55:51.149Z,61.06
2017-12-15T00:58:18.947Z,61.54
2017-12-15T01:00:46.563Z,60.14
2017-12-15T01:03:14.101Z,60.51
2017-12-15T01:05:41.643Z,60.27
2017-12-15T01:08:09.241Z,59.41
2017-12-15T01:10:36.788Z,59.11
2017-12-15T01:13:04.318Z,60.48
2017-12-15T01:15:31.889Z,59.09
2017-12-15T01:17:59.498Z,59.88
2017-12-15T01:20:27.091Z,58.49
2017-12-15T01:22:54.699Z,58.99
2017-12-15T01:25:22.259Z,60.31
2017-12-15T01:27:49.841Z,60.13
2017-12-15T01:30:17.416Z,60.88
2017-12-15T01:32:44.960Z,60.95
2017-12-15T01:35:12.498Z,60.14
2017-12-15T01:37:40.292Z,59.90
2017-12-15T01:40:07.840Z,60.67
2017-12-15T01:42:35.413Z,60.62
2017-12-15T01:45:03.038Z,60.38
2017-12-15T01:47:30.824Z,61.47
2017-12-15T01:49:58.361Z,59.90
2017-12-15T01:52:25.919Z,60.53
2017-12-15T01:54:53.435Z,61.35
2017-12-15T01:57:21.034Z,60.15
2017-12-15T01:59:48.670Z,60.40
2017-12-15T02:02:16.244Z,60.37
2017-12-15T02:04:43.811Z,60.14
2017-12-15T02:07:11.560Z,59.30
2017-12-15T02:09:39.157Z,60.19
2017-12-15T02:12:06.751Z,60.23
2017-12-15T02:14:34.610Z,60.03
2017-12-15T02:17:02.181Z,60.30
2017-12-15T02:19:29.732Z,60.29
2017-12-15T02:21:57.352Z,59.75
2017-12-15T02:24:25.008Z,59.46
2017-12-15T02:26:52.574Z,59.58
2017-12-15T02:29:20.338Z,60.63
2017-12-15T02:31:47.890Z,59.22
2017-12-15T02:34:15.783Z,59.88
2017-12-15T02:36:43.334Z,60.71
2017-12-15T02:39:10.906Z,59.66
2017-12-15T02:41:38.433Z,60.69
2017-12-15T02:44:05.958Z,60.58
2017-12-15T02:46:33.550Z,58.66
2017-12-15T02:49:01.084Z,60.62
2017-12-15T02:51:28.613Z,61.16
2017-12-15T02:53:56.175Z,61.06
2017-12-15T02:56:23.783Z,60.75
2017-12-15T02:58:51.383Z,60.57
2017-12-15T03:01:18.908Z,59.86
2017-12-15T03:03:46.507Z,60.98
2017-12-15T03:06:14.042Z,62.12
2017-12-15T03:08:41.677Z,61.25
2017-12-15T03:11:09.255Z,60.21
2017-12-15T03:13:37.016Z,61.09
2017-12-15T03:16:04.601Z,60.59
2017-12-15T03:18:32.145Z,61.72
2017-12-15T03:20:59.715Z,61.95
2017-12-15T03:23:27.254Z,61.61
2017-12-15T03:25:54.805Z,61.50
2017-12-15T03:28:22.372Z,61.53
2017-12-15T03:30:49.963Z,60.86
2017-12-15T03:33:17.536Z,60.71
2017-12-15T03:35:45.084Z,61.32
2017-12-15T03:38:12.674Z,61.56
2017-12-15T03:40:40.443Z,61.12
2017-12-15T03:43:07.988Z,61.25
2017-12-15T03:45:35.607Z,61.42
2017-12-15T03:48:03.132Z,62.17
2017-12-15T03:50:30.670Z,61.71
2017-12-15T03:52:58.235Z,61.81
2017-12-15T03:55:25.785Z,61.33
2017-12-15T03:57:53.320Z,61.36
2017-12-15T04:00:20.931Z,61.88
2017-12-15T04:02:48.510Z,62.01
2017-12-15T04:05:16.122Z,62.05
2017-12-15T04:07:43.701Z,60.77
2017-12-15T04:10:11.245Z,61.29
2017-12-15T04:12:38.798Z,60.78
2017-12-15T04:15:06.359Z,61.39
2017-12-15T04:17:34.119Z,62.50
2017-12-15T04:20:01.734Z,63.17
2017-12-15T04:22:29.345Z,62.29
2017-12-15T04:24:56.886Z,60.06
2017-12-15T04:27:24.495Z,61.40
2017-12-15T04:29:52.275Z,62.30
2017-12-15T04:32:19.918Z,63.92
2017-12-15T04:34:47.692Z,63.84
2017-12-15T04:37:15.264Z,64.91
2017-12-15T04:39:42.902Z,63.59
2017-12-15T04:42:10.456Z,64.09
2017-12-15T04:44:38.020Z,64.69
2017-12-15T04:47:05.852Z,64.53
2017-12-15T04:49:33.712Z,64.03
2017-12-15T04:52:01.484Z,63.92
2017-12-15T04:54:29.108Z,66.37
2017-12-15T04:56:56.909Z,65.91
2017-12-15T04:59:24.686Z,67.09
2017-12-15T05:01:52.313Z,65.23
2017-12-15T05:04:20.238Z,65.32
2017-12-15T05:06:47.814Z,66.93
2017-12-15T05:09:15.413Z,68.29
2017-12-15T05:11:43.252Z,67.88
2017-12-15T05:14:11.450Z,66.61
2017-12-15T05:16:39.179Z,67.04
2017-12-15T05:19:06.775Z,67.67
2017-12-15T05:21:35.194Z,68.00
2017-12-15T05:24:02.856Z,68.17
2017-12-15T05:26:31.268Z,69.46
2017-12-15T05:28:59.673Z,69.37
2017-12-15T05:31:27.273Z,68.35
2017-12-15T05:33:55.058Z,67.18
2017-12-15T05:36:23.476Z,67.95
2017-12-15T05:38:51.101Z,68.08
2017-12-15T05:41:18.633Z,66.32
2017-12-15T05:43:46.181Z,66.05
2017-12-15T05:46:13.823Z,65.88
2017-12-15T05:48:41.584Z,65.53
2017-12-15T05:51:09.350Z,64.47
2017-12-15T05:53:36.906Z,63.69
2017-12-15T05:56:04.753Z,63.57
2017-12-15T05:58:32.549Z,62.59
2017-12-15T06:01:00.920Z,62.62
2017-12-15T06:03:28.468Z,63.31
2017-12-15T06:05:56.272Z,62.62
2017-12-15T06:08:23.940Z,62.26
2017-12-15T06:10:51.695Z,62.87
2017-12-15T06:13:19.342Z,61.86
2017-12-15T06:15:46.921Z,61.15
2017-12-15T06:18:15.799Z,61.34
2017-12-15T06:20:43.628Z,61.01
2017-12-15T06:23:11.241Z,60.99
2017-12-15T06:25:38.783Z,61.23
2017-12-15T06:28:06.374Z,60.72
2017-12-15T06:30:33.963Z,60.72
2017-12-15T06:33:01.554Z,60.75
2017-12-15T06:35:29.139Z,60.62
2017-12-15T06:37:56.763Z,60.21
2017-12-15T06:40:24.389Z,60.38
2017-12-15T06:42:52.007Z,60.12
2017-12-15T06:45:19.664Z,58.94
2017-12-15T06:47:47.207Z,59.27
2017-12-15T06:50:14.806Z,60.02
2017-12-15T06:52:42.453Z,60.35
2017-12-15T06:55:10.043Z,60.07
2017-12-15T06:57:37.858Z,59.29
2017-12-15T07:00:06.026Z,60.19
2017-12-15T07:02:33.841Z,59.65
2017-12-15T07:05:01.481Z,59.85
2017-12-15T07:07:29.103Z,59.81
2017-12-15T07:09:56.874Z,59.72
2017-12-15T07:12:24.510Z,59.92
2017-12-15T07:14:52.344Z,58.78
2017-12-15T07:17:19.959Z,57.57
2017-12-15T07:19:47.733Z,58.59
2017-12-15T07:22:15.329Z,58.59
2017-12-15T07:24:42.872Z,59.66
2017-12-15T07:27:11.315Z,60.51
2017-12-15T07:29:38.898Z,59.66
2017-12-15T07:32:07.111Z,59.94
2017-12-15T07:34:34.885Z,59.07
2017-12-15T07:37:02.475Z,60.24
2017-12-15T07:39:30.117Z,60.96
2017-12-15T07:41:57.933Z,59.55
2017-12-15T07:44:25.552Z,59.30
2017-12-15T07:46:53.342Z,58.62
2017-12-15T07:49:20.964Z,58.64
2017-12-15T07:51:48.740Z,58.59
2017-12-15T07:54:16.372Z,59.04
2017-12-15T07:56:44.591Z,58.76
2017-12-15T07:59:12.161Z,58.86
2017-12-15T08:01:39.740Z,58.56
2017-12-15T08:04:07.519Z,58.49
2017-12-15T08:06:35.307Z,57.01
2017-12-15T08:09:02.875Z,57.44
2017-12-15T08:11:30.501Z,57.78
2017-12-15T08:13:58.319Z,58.46
2017-12-15T08:16:25.910Z,58.51
2017-12-15T08:18:53.525Z,57.45
2017-12-15T08:21:21.175Z,57.86
2017-12-15T08:23:48.751Z,57.88
2017-12-15T08:26:16.324Z,57.56
2017-12-15T08:28:43.976Z,57.25
2017-12-15T08:31:11.571Z,57.91
2017-12-15T08:33:39.163Z,57.27
2017-12-15T08:36:06.932Z,57.25
2017-12-15T08:38:34.636Z,56.50
2017-12-15T08:41:02.196Z,56.75
2017-12-15T08:43:30.005Z,57.01
2017-12-15T08:45:57.610Z,56.77
2017-12-15T08:48:26.164Z,58.09
2017-12-15T08:50:53.920Z,57.65
2017-12-15T08:53:21.512Z,56.02
2017-12-15T08:55:49.147Z,55.60
2017-12-15T08:58:17.623Z,56.50
2017-12-15T09:00:45.240Z,57.56
2017-12-15T09:03:12.930Z,57.43
2017-12-15T09:05:40.543Z,56.68
2017-12-15T09:08:08.174Z,57.10
2017-12-15T09:10:35.936Z,57.01
2017-12-15T09:13:03.535Z,56.13
2017-12-15T09:15:31.453Z,56.79
2017-12-15T09:17:59.237Z,56.46
2017-12-15T09:20:26.804Z,55.85
2017-12-15T09:22:54.892Z,56.10
2017-12-15T09:25:22.529Z,55.81
2017-12-15T09:27:50.288Z,56.25
2017-12-15T09:30:17.889Z,56.80
2017-12-15T09:32:45.675Z,55.86
2017-12-15T09:35:13.203Z,56.08
2017-12-15T09:37:40.895Z,55.56
2017-12-15T09:40:08.704Z,54.56
2017-12-15T09:42:36.292Z,53.55
2017-12-15T09:45:03.899Z,54.07
2017-12-15T09:47:31.464Z,54.16
2017-12-15T09:49:59.032Z,55.10
2017-12-15T09:52:26.806Z,54.65
2017-12-15T09:54:54.594Z,54.53
2017-12-15T09:57:22.252Z,53.41
2017-12-15T09:59:49.790Z,52.99
2017-12-15T10:02:17.456Z,52.57
2017-12-15T10:04:45.026Z,51.98
2017-12-15T10:07:12.602Z,52.75
2017-12-15T10:09:40.207Z,52.39
2017-12-15T10:12:07.835Z,50.98
2017-12-15T10:14:35.619Z,51.69
2017-12-15T10:17:03.577Z,52.42
2017-12-15T10:19:31.164Z,52.22
2017-12-15T10:21:58.966Z,51.46
2017-12-15T10:24:26.538Z,51.16
2017-12-15T10:26:54.362Z,51.10
2017-12-15T10:29:22.180Z,53.57
2017-12-15T10:31:49.791Z,53.55
2017-12-15T10:34:17.565Z,53.74
2017-12-15T10:36:45.453Z,51.98
2017-12-15T10:39:13.029Z,52.58
2017-12-15T10:41:40.639Z,52.39
2017-12-15T10:44:08.245Z,51.86
2017-12-15T10:46:36.604Z,51.83
2017-12-15T10:49:04.190Z,52.20
2017-12-15T10:51:31.778Z,51.79
2017-12-15T10:53:59.497Z,51.14
2017-12-15T10:56:27.340Z,51.31
2017-12-15T10:58:55.143Z,50.94
2017-12-15T11:01:22.734Z,53.16
2017-12-15T11:03:50.294Z,52.65
2017-12-15T11:06:18.067Z,53.50
2017-12-15T11:08:45.690Z,51.15
2017-12-15T11:11:13.446Z,50.97
2017-12-15T11:13:41.683Z,50.89
2017-12-15T11:16:09.501Z,51.28
2017-12-15T11:18:37.147Z,50.59
2017-12-15T11:21:04.737Z,50.85
2017-12-15T11:23:32.555Z,50.38
2017-12-15T11:26:00.102Z,49.87
2017-12-15T11:28:27.701Z,49.93
2017-12-15T11:30:55.338Z,49.31
2017-12-15T11:33:22.899Z,49.02
2017-12-15T11:35:50.487Z,48.57
2017-12-15T11:38:18.060Z,49.16
2017-12-15T11:40:45.666Z,49.12
2017-12-15T11:43:13.238Z,50.30
2017-12-15T11:45:40.862Z,50.02
2017-12-15T11:48:08.504Z,49.92
2017-12-15T11:50:36.522Z,49.76
2017-12-15T11:53:04.175Z,49.87
2017-12-15T11:55:31.924Z,49.82
2017-12-15T11:57:59.595Z,50.22
2017-12-15T12:00:27.266Z,48.93
2017-12-15T12:02:55.055Z,48.71
2017-12-15T12:05:22.630Z,49.02
2017-12-15T12:07:50.237Z,49.05
2017-12-15T12:10:17.789Z,50.07
2017-12-15T12:12:45.364Z,50.03
2017-12-15T12:15:13.012Z,49.36
2017-12-15T12:17:40.954Z,49.85
2017-12-15T12:20:09.191Z,50.07
2017-12-15T12:22:36.800Z,50.58
2017-12-15T12:25:04.673Z,50.89
2017-12-15T12:27:32.537Z,51.23
2017-12-15T12:30:00.103Z,50.77
2017-12-15T12:32:27.712Z,50.75
2017-12-15T12:34:55.498Z,50.39
2017-12-15T12:37:23.082Z,50.49
2017-12-15T12:39:50.668Z,50.97
2017-12-15T12:42:18.245Z,49.97
2017-12-15T12:44:45.784Z,50.72
2017-12-15T12:47:13.440Z,50.81
2017-12-15T12:49:40.995Z,49.76
2017-12-15T12:52:08.757Z,50.09
2017-12-15T12:54:36.372Z,50.23
2017-12-15T12:57:04.374Z,51.08
2017-12-15T12:59:32.006Z,51.18
2017-12-15T13:01:59.816Z,51.49
2017-12-15T13:04:27.384Z,51.62
2017-12-15T13:06:54.961Z,51.96
2017-12-15T13:09:22.605Z,50.66
2017-12-15T13:11:50.437Z,50.66
2017-12-15T13:14:18.234Z,50.96
2017-12-15T13:16:45.821Z,51.17
2017-12-15T13:19:13.464Z,52.18
2017-12-15T13:21:41.144Z,52.00
2017-12-15T13:24:08.932Z,51.48
2017-12-15T13:26:36.551Z,51.70
2017-12-15T13:29:04.106Z,51.86
2017-12-15T13:31:31.758Z,52.29
2017-12-15T13:33:59.351Z,52.52
2017-12-15T13:49:23.919Z,51.66
2017-12-15T13:51:51.693Z,51.70
2017-12-15T13:54:19.308Z,51.44
2017-12-15T13:56:48.414Z,51.16
2017-12-15T13:59:16.028Z,50.65
2017-12-15T14:01:43.774Z,50.71
2017-12-15T14:04:11.366Z,50.73
2017-12-15T14:06:39.132Z,51.51
2017-12-15T14:09:07.484Z,52.99
2017-12-15T14:11:35.055Z,52.72
2017-12-15T14:14:02.602Z,53.43
2017-12-15T14:16:30.171Z,53.29
2017-12-15T14:18:57.729Z,52.35
2017-12-15T14:21:25.259Z,53.80
2017-12-15T14:23:52.834Z,53.55
2017-12-15T14:26:21.234Z,54.82
2017-12-15T14:28:48.831Z,55.04
2017-12-15T14:31:16.524Z,54.68
2017-12-15T14:33:44.117Z,55.75
2017-12-15T14:36:11.752Z,55.29
2017-12-15T14:38:39.495Z,54.76
2017-12-15T14:41:07.155Z,56.09
2017-12-15T14:43:34.719Z,55.90
2017-12-15T14:46:02.415Z,55.36
2017-12-15T14:48:30.212Z,54.59
2017-12-15T14:50:57.893Z,55.19
2017-12-15T14:53:25.578Z,55.38
2017-12-15T14:55:53.165Z,55.21
2017-12-15T14:58:20.810Z,55.13
2017-12-15T15:00:48.426Z,55.85
2017-12-15T15:03:16.047Z,55.98
2017-12-15T15:05:43.598Z,55.61
2017-12-15T15:08:11.721Z,55.31
2017-12-15T15:10:39.313Z,56.81
2017-12-15T15:13:06.862Z,56.85
2017-12-15T15:15:34.523Z,56.91
2017-12-15T15:18:02.828Z,56.42
2017-12-15T15:20:30.493Z,56.78
2017-12-15T15:22:58.328Z,56.34
2017-12-15T15:25:25.953Z,56.01
2017-12-15T15:27:53.667Z,56.85
2017-12-15T15:30:22.270Z,57.52
2017-12-15T15:32:50.048Z,59.04
2017-12-15T15:35:17.647Z,57.23
2017-12-15T15:37:45.519Z,58.07
2017-12-15T15:40:13.325Z,56.89
2017-12-15T15:42:41.008Z,57.33
2017-12-15T15:45:08.639Z,58.30
2017-12-15T15:47:36.271Z,57.55
2017-12-15T15:50:03.881Z,58.80
2017-12-15T15:52:31.552Z,58.71
2017-12-15T15:54:59.950Z,58.24
2017-12-15T15:57:27.519Z,57.42
2017-12-15T15:59:55.377Z,59.06
2017-12-15T16:02:23.213Z,57.74
2017-12-15T16:04:51.053Z,58.77
2017-12-15T16:07:19.047Z,59.14
2017-12-15T16:09:46.701Z,59.04
2017-12-15T16:12:14.347Z,58.84
2017-12-15T16:14:41.980Z,58.27
2017-12-15T16:17:12.484Z,58.05
2017-12-15T16:19:40.833Z,58.13
2017-12-15T16:22:08.540Z,59.02
2017-12-15T16:24:36.367Z,58.04
2017-12-15T16:27:03.994Z,57.83
2017-12-15T16:29:32.115Z,58.58
2017-12-15T16:32:00.037Z,57.70
2017-12-15T16:34:27.884Z,58.48
2017-12-15T16:36:55.541Z,60.22
2017-12-15T16:39:23.171Z,59.39
2017-12-15T16:41:50.842Z,59.70
2017-12-15T16:44:18.804Z,58.86
2017-12-15T16:46:46.557Z,58.71
2017-12-15T16:49:14.427Z,59.01
2017-12-15T16:51:42.344Z,58.89
2017-12-15T16:54:10.290Z,58.53
2017-12-15T16:56:38.064Z,58.42
2017-12-15T16:59:05.835Z,59.56
2017-12-15T17:01:34.304Z,59.43
2017-12-15T17:04:02.187Z,58.87
2017-12-15T17:06:30.723Z,58.77
2017-12-15T17:08:58.709Z,58.87
2017-12-15T17:14:40.573Z,58.99
2017-12-15T17:17:08.233Z,59.44
2017-12-15T17:19:35.829Z,58.98
2017-12-15T17:22:03.572Z,60.03
2017-12-15T17:24:31.229Z,59.51
2017-12-15T17:26:58.957Z,59.83
2017-12-15T17:29:27.088Z,59.86
2017-12-15T17:31:54.758Z,60.23
2017-12-15T17:34:22.572Z,59.80
2017-12-15T17:36:50.280Z,59.89
2017-12-15T17:39:18.978Z,59.71
2017-12-15T17:41:47.378Z,59.98
2017-12-15T17:44:15.092Z,59.97
2017-12-15T17:46:43.842Z,59.42
2017-12-15T17:49:11.694Z,59.83
2017-12-15T17:51:39.644Z,59.58
2017-12-15T17:54:07.401Z,59.54
2017-12-15T17:56:35.130Z,59.15
2017-12-15T17:59:03.505Z,59.45
2017-12-15T18:01:31.191Z,60.29
2017-12-15T18:03:59.339Z,60.93
2017-12-15T18:06:27.177Z,59.73
2017-12-15T18:08:54.872Z,61.02
2017-12-15T18:11:25.316Z,60.41
2017-12-15T18:13:53.856Z,60.00
2017-12-15T18:16:21.454Z,59.22
2017-12-15T18:18:49.834Z,59.15
2017-12-15T18:21:18.565Z,58.93
2017-12-15T18:23:47.874Z,59.22
2017-12-15T18:26:15.513Z,58.07
2017-12-15T18:28:43.877Z,58.91
2017-12-15T18:31:11.513Z,58.85
2017-12-15T18:33:40.353Z,57.79
2017-12-15T18:36:08.885Z,58.77
2017-12-15T18:38:36.545Z,58.54
2017-12-15T18:41:04.176Z,57.52
2017-12-15T18:43:31.754Z,57.49
2017-12-15T18:46:20.204Z,57.21
2017-12-15T18:48:48.569Z,58.02
2017-12-15T18:51:17.037Z,58.05
2017-12-15T18:53:44.645Z,58.25
2017-12-15T18:56:14.921Z,58.92
2017-12-15T18:58:44.856Z,58.30
2017-12-15T19:01:16.278Z,58.07
2017-12-15T19:03:44.160Z,57.28
2017-12-15T19:06:11.996Z,57.66
2017-12-15T19:08:40.229Z,57.45
2017-12-15T19:11:07.958Z,57.03
2017-12-15T19:13:35.611Z,56.90
2017-12-15T19:16:04.044Z,57.54
2017-12-15T19:18:33.607Z,57.36
2017-12-15T19:21:01.886Z,57.36
2017-12-15T19:23:30.058Z,56.99
2017-12-15T19:25:57.644Z,57.40
2017-12-15T19:28:25.387Z,56.43
2017-12-15T19:30:53.053Z,55.64
2017-12-15T19:33:21.671Z,56.51
2017-12-15T19:35:50.370Z,56.81
2017-12-15T19:38:18.469Z,56.45
2017-12-15T19:40:46.061Z,57.10
2017-12-15T19:43:13.867Z,56.99
2017-12-15T19:45:41.522Z,57.08
2017-12-15T19:48:10.030Z,56.58
2017-12-15T19:50:38.027Z,56.65
2017-12-15T19:53:05.742Z,55.69
2017-12-15T19:55:33.358Z,56.13
2017-12-15T19:58:00.990Z,56.11
2017-12-15T20:00:29.496Z,56.09
2017-12-15T20:02:57.383Z,55.48
2017-12-15T20:05:25.900Z,55.29
2017-12-15T20:07:59.862Z,55.24
2017-12-15T20:10:30.603Z,55.43
2017-12-15T20:13:01.552Z,56.51
2017-12-15T20:15:30.087Z,55.58
2017-12-15T20:17:59.790Z,55.96
2017-12-15T20:20:30.383Z,56.11
2017-12-15T20:23:25.554Z,57.70
2017-12-15T20:25:53.593Z,57.53
2017-12-15T20:31:58.884Z,56.53
2017-12-15T20:34:33.274Z,55.79
2017-12-15T20:37:03.465Z,56.11
2017-12-15T20:39:32.828Z,56.18
2017-12-15T20:42:00.682Z,55.47
2017-12-15T20:44:32.121Z,55.57
2017-12-15T20:47:01.757Z,55.91
2017-12-15T20:49:29.769Z,55.73
2017-12-15T20:51:58.954Z,55.54
2017-12-15T20:54:28.241Z,55.20
2017-12-15T20:56:57.253Z,55.99
2017-12-15T20:59:25.334Z,55.67
2017-12-15T21:01:53.847Z,55.86
2017-12-15T21:04:23.280Z,55.05
2017-12-15T21:06:53.141Z,56.60
2017-12-15T21:09:21.770Z,56.69
2017-12-15T21:11:50.563Z,56.17
2017-12-15T21:14:18.603Z,55.58
2017-12-15T21:16:47.844Z,55.98
2017-12-15T21:19:15.444Z,56.08
2017-12-15T21:21:43.193Z,56.03
2017-12-15T21:24:10.792Z,56.63
2017-12-15T21:26:38.348Z,56.02
2017-12-15T21:29:06.137Z,55.99
2017-12-15T21:31:33.918Z,56.50
2017-12-15T21:36:55.317Z,56.85
2017-12-15T21:39:23.203Z,56.18
2017-12-15T21:41:50.966Z,56.24
2017-12-15T21:44:18.540Z,55.63
2017-12-15T21:46:46.206Z,55.09
2017-12-15T21:49:13.881Z,56.18
2017-12-15T21:51:41.587Z,56.55
2017-12-15T21:58:44.363Z,55.24
2017-12-15T22:01:12.230Z,55.18
2017-12-15T22:03:40.031Z,53.72
2017-12-15T22:06:07.915Z,53.78
2017-12-15T22:08:35.784Z,54.55
2017-12-15T22:11:03.376Z,54.26
2017-12-15T22:13:30.959Z,54.43
2017-12-15T22:15:59.717Z,54.02
2017-12-15T22:18:27.627Z,53.95
2017-12-15T22:20:55.524Z,53.76
2017-12-15T22:23:23.890Z,53.67
2017-12-15T22:25:51.520Z,53.43
2017-12-15T22:28:19.553Z,53.74
2017-12-15T22:30:47.171Z,53.20
2017-12-15T22:33:14.987Z,52.47
2017-12-15T22:35:42.532Z,52.90
2017-12-15T22:38:10.234Z,53.20
2017-12-15T22:40:37.990Z,53.25
2017-12-15T22:43:05.554Z,53.67
2017-12-15T22:45:33.146Z,55.08
2017-12-15T22:48:01.233Z,54.07
2017-12-15T22:50:29.214Z,54.06
2017-12-15T22:52:56.842Z,54.66
2017-12-15T22:55:24.437Z,53.97
2017-12-15T22:57:52.063Z,53.13
2017-12-15T23:00:19.698Z,52.52
2017-12-15T23:02:47.525Z,52.12
2017-12-15T23:05:16.241Z,51.03
2017-12-15T23:07:43.935Z,50.59
2017-12-15T23:10:11.703Z,50.52
2017-12-15T23:12:39.373Z,50.53
2017-12-15T23:15:06.951Z,50.56
2017-12-15T23:17:34.540Z,50.17
2017-12-15T23:20:02.266Z,50.10
2017-12-15T23:22:30.221Z,49.72
2017-12-15T23:24:58.115Z,49.65
2017-12-15T23:27:25.886Z,49.49
2017-12-15T23:29:53.593Z,49.55
2017-12-15T23:32:21.861Z,49.59
2017-12-15T23:34:49.467Z,49.59
2017-12-15T23:37:17.033Z,49.05
2017-12-15T23:39:44.909Z,48.52
2017-12-15T23:42:12.729Z,49.23
2017-12-15T23:44:40.292Z,49.53
2017-12-15T23:47:07.939Z,49.28
2017-12-15T23:49:35.638Z,49.04
2017-12-15T23:52:03.254Z,49.23
2017-12-15T23:54:42.732Z,49.06
2017-12-15T23:57:10.547Z,49.14
2017-12-15T23:59:40.102Z,49.60
